sensor_id;sensor_type;location;lat;lon;timestamp;pressure;altitude;pressure_sealevel;temperature;humidity
39891;BME280;25564;53.312;9.790;2022-10-17T00:01:05;101266.25;;;12.44;85.57
39891;BME280;25564;53.312;9.790;2022-10-17T00:03:37;101259.28;;;12.37;86.06
39891;BME280;25564;53.312;9.790;2022-10-17T00:06:11;101259.19;;;12.42;86.01
39891;BME280;25564;53.312;9.790;2022-10-17T00:08:43;101270.78;;;12.39;86.20
39891;BME280;25564;53.312;9.790;2022-10-17T00:11:17;101271.69;;;12.38;86.50
39891;BME280;25564;53.312;9.790;2022-10-17T00:13:50;101287.66;;;12.38;86.27
39891;BME280;25564;53.312;9.790;2022-10-17T00:16:25;101285.84;;;12.40;86.45
39891;BME280;25564;53.312;9.790;2022-10-17T00:18:58;101289.31;;;12.44;86.55
39891;BME280;25564;53.312;9.790;2022-10-17T00:21:29;101279.50;;;12.48;86.61
39891;BME280;25564;53.312;9.790;2022-10-17T00:24:01;101267.03;;;12.50;86.47
39891;BME280;25564;53.312;9.790;2022-10-17T00:26:32;101264.34;;;12.51;86.69
39891;BME280;25564;53.312;9.790;2022-10-17T00:29:03;101273.13;;;12.56;86.72
39891;BME280;25564;53.312;9.790;2022-10-17T00:31:35;101268.69;;;12.57;86.63
39891;BME280;25564;53.312;9.790;2022-10-17T00:34:06;101284.56;;;12.61;86.69
39891;BME280;25564;53.312;9.790;2022-10-17T00:36:37;101280.94;;;12.67;86.70
39891;BME280;25564;53.312;9.790;2022-10-17T00:39:09;101256.91;;;12.70;86.66
39891;BME280;25564;53.312;9.790;2022-10-17T00:41:40;101248.06;;;12.68;86.74
39891;BME280;25564;53.312;9.790;2022-10-17T00:47:05;101255.06;;;12.73;86.79
39891;BME280;25564;53.312;9.790;2022-10-17T00:49:38;101263.94;;;12.74;87.08
39891;BME280;25564;53.312;9.790;2022-10-17T00:52:21;101276.28;;;12.78;86.97
39891;BME280;25564;53.312;9.790;2022-10-17T00:55:09;101281.53;;;12.84;87.20
39891;BME280;25564;53.312;9.790;2022-10-17T00:57:43;101277.84;;;12.91;87.14
39891;BME280;25564;53.312;9.790;2022-10-17T01:00:16;101279.47;;;12.98;87.28
39891;BME280;25564;53.312;9.790;2022-10-17T01:02:48;101268.72;;;13.04;87.03
39891;BME280;25564;53.312;9.790;2022-10-17T01:05:19;101255.16;;;13.18;87.51
39891;BME280;25564;53.312;9.790;2022-10-17T01:07:52;101259.28;;;13.34;87.53
39891;BME280;25564;53.312;9.790;2022-10-17T01:10:29;101264.31;;;13.48;87.36
39891;BME280;25564;53.312;9.790;2022-10-17T01:13:16;101263.22;;;13.57;87.54
39891;BME280;25564;53.312;9.790;2022-10-17T01:16:07;101270.06;;;13.70;87.34
39891;BME280;25564;53.312;9.790;2022-10-17T01:18:50;101279.78;;;13.72;86.93
39891;BME280;25564;53.312;9.790;2022-10-17T01:21:32;101276.31;;;13.69;86.90
39891;BME280;25564;53.312;9.790;2022-10-17T01:24:24;101270.09;;;13.68;86.93
39891;BME280;25564;53.312;9.790;2022-10-17T01:27:22;101279.84;;;13.69;86.47
39891;BME280;25564;53.312;9.790;2022-10-17T01:33:48;101275.41;;;13.68;86.65
39891;BME280;25564;53.312;9.790;2022-10-17T01:36:47;101269.25;;;13.66;86.98
39891;BME280;25564;53.312;9.790;2022-10-17T01:39:27;101273.59;;;13.70;86.46
39891;BME280;25564;53.312;9.790;2022-10-17T01:42:16;101272.75;;;13.68;87.04
39891;BME280;25564;53.312;9.790;2022-10-17T01:44:55;101267.38;;;13.70;86.82
39891;BME280;25564;53.312;9.790;2022-10-17T01:47:30;101275.28;;;13.74;86.94
39891;BME280;25564;53.312;9.790;2022-10-17T01:50:06;101274.31;;;13.79;86.55
39891;BME280;25564;53.312;9.790;2022-10-17T01:52:45;101252.25;;;13.70;86.58
39891;BME280;25564;53.312;9.790;2022-10-17T01:55:22;101271.41;;;13.89;86.55
39891;BME280;25564;53.312;9.790;2022-10-17T01:58:00;101263.34;;;13.92;86.31
39891;BME280;25564;53.312;9.790;2022-10-17T02:00:33;101268.63;;;13.94;85.96
39891;BME280;25564;53.312;9.790;2022-10-17T02:03:08;101259.72;;;13.95;86.23
39891;BME280;25564;53.312;9.790;2022-10-17T02:05:43;101265.00;;;13.98;86.23
39891;BME280;25564;53.312;9.790;2022-10-17T02:08:24;101256.06;;;13.99;86.10
39891;BME280;25564;53.312;9.790;2022-10-17T02:11:00;101259.59;;;14.01;86.04
39891;BME280;25564;53.312;9.790;2022-10-17T02:16:59;101238.16;;;14.04;85.71
39891;BME280;25564;53.312;9.790;2022-10-17T02:22:29;101228.34;;;14.06;85.72
39891;BME280;25564;53.312;9.790;2022-10-17T02:25:47;101228.28;;;14.07;85.84
39891;BME280;25564;53.312;9.790;2022-10-17T02:28:38;101229.16;;;14.08;85.88
39891;BME280;25564;53.312;9.790;2022-10-17T02:31:21;101222.97;;;14.07;85.65
39891;BME280;25564;53.312;9.790;2022-10-17T02:33:58;101230.09;;;14.07;85.53
39891;BME280;25564;53.312;9.790;2022-10-17T02:36:39;101232.75;;;14.07;85.72
39891;BME280;25564;53.312;9.790;2022-10-17T02:39:14;101227.47;;;14.05;85.82
39891;BME280;25564;53.312;9.790;2022-10-17T02:41:48;101208.13;;;13.96;85.46
39891;BME280;25564;53.312;9.790;2022-10-17T02:44:21;101224.88;;;14.01;85.29
39891;BME280;25564;53.312;9.790;2022-10-17T02:47:08;101213.41;;;13.97;85.42
39891;BME280;25564;53.312;9.790;2022-10-17T02:49:46;101205.63;;;13.88;85.20
39891;BME280;25564;53.312;9.790;2022-10-17T02:52:26;101219.00;;;13.87;85.06
39891;BME280;25564;53.312;9.790;2022-10-17T02:55:05;101201.50;;;13.73;85.07
39891;BME280;25564;53.312;9.790;2022-10-17T02:57:41;101212.19;;;13.73;85.46
39891;BME280;25564;53.312;9.790;2022-10-17T03:00:17;101214.13;;;13.67;85.28
39891;BME280;25564;53.312;9.790;2022-10-17T03:02:50;101206.25;;;13.61;85.34
39891;BME280;25564;53.312;9.790;2022-10-17T03:05:27;101193.94;;;13.55;85.59
39891;BME280;25564;53.312;9.790;2022-10-17T03:07:59;101189.78;;;13.44;85.31
39891;BME280;25564;53.312;9.790;2022-10-17T03:10:30;101200.44;;;13.44;85.52
39891;BME280;25564;53.312;9.790;2022-10-17T03:13:02;101194.34;;;13.37;85.80
39891;BME280;25564;53.312;9.790;2022-10-17T03:15:33;101188.25;;;13.32;85.55
39891;BME280;25564;53.312;9.790;2022-10-17T03:18:04;101185.72;;;13.26;85.86
39891;BME280;25564;53.312;9.790;2022-10-17T03:20:36;101193.78;;;13.23;85.85
39891;BME280;25564;53.312;9.790;2022-10-17T03:23:07;101183.19;;;13.20;85.71
39891;BME280;25564;53.312;9.790;2022-10-17T03:25:40;101186.78;;;13.16;85.76
39891;BME280;25564;53.312;9.790;2022-10-17T03:28:11;101187.72;;;13.13;86.08
39891;BME280;25564;53.312;9.790;2022-10-17T03:30:43;101189.56;;;13.09;85.98
39891;BME280;25564;53.312;9.790;2022-10-17T03:33:14;101186.97;;;13.06;85.93
39891;BME280;25564;53.312;9.790;2022-10-17T03:35:45;101177.31;;;13.01;86.20
39891;BME280;25564;53.312;9.790;2022-10-17T03:38:17;101190.63;;;13.01;86.29
39891;BME280;25564;53.312;9.790;2022-10-17T03:40:55;101185.38;;;12.96;86.29
39891;BME280;25564;53.312;9.790;2022-10-17T03:43:26;101195.22;;;12.93;86.32
39891;BME280;25564;53.312;9.790;2022-10-17T03:45:58;101164.41;;;12.80;86.44
39891;BME280;25564;53.312;9.790;2022-10-17T03:48:30;101182.97;;;12.84;86.33
39891;BME280;25564;53.312;9.790;2022-10-17T03:51:07;101179.47;;;12.81;86.55
39891;BME280;25564;53.312;9.790;2022-10-17T03:53:39;101179.59;;;12.74;86.43
39891;BME280;25564;53.312;9.790;2022-10-17T03:56:18;101181.44;;;12.71;86.72
39891;BME280;25564;53.312;9.790;2022-10-17T03:58:50;101176.19;;;12.66;86.61
39891;BME280;25564;53.312;9.790;2022-10-17T04:01:22;101174.47;;;12.64;86.72
39891;BME280;25564;53.312;9.790;2022-10-17T04:03:55;101171.88;;;12.61;86.87
39891;BME280;25564;53.312;9.790;2022-10-17T04:06:26;101182.59;;;12.56;86.77
39891;BME280;25564;53.312;9.790;2022-10-17T04:08:58;101180.84;;;12.55;86.86
39891;BME280;25564;53.312;9.790;2022-10-17T04:11:29;101178.28;;;12.49;86.92
39891;BME280;25564;53.312;9.790;2022-10-17T04:14:01;101179.16;;;12.50;87.08
39891;BME280;25564;53.312;9.790;2022-10-17T04:16:32;101178.34;;;12.48;87.20
39891;BME280;25564;53.312;9.790;2022-10-17T04:19:03;101180.19;;;12.44;87.30
39891;BME280;25564;53.312;9.790;2022-10-17T04:21:35;101172.31;;;12.38;87.13
39891;BME280;25564;53.312;9.790;2022-10-17T04:24:09;101166.03;;;12.42;87.47
39891;BME280;25564;53.312;9.790;2022-10-17T04:26:41;101179.31;;;12.43;87.63
39891;BME280;25564;53.312;9.790;2022-10-17T04:29:12;101191.66;;;12.48;87.94
39891;BME280;25564;53.312;9.790;2022-10-17T04:31:43;101144.00;;;12.34;88.13
39891;BME280;25564;53.312;9.790;2022-10-17T04:34:15;101166.78;;;12.49;88.09
39891;BME280;25564;53.312;9.790;2022-10-17T04:36:46;101167.53;;;12.55;88.51
39891;BME280;25564;53.312;9.790;2022-10-17T04:39:17;101163.88;;;12.61;88.63
39891;BME280;25564;53.312;9.790;2022-10-17T04:41:49;101168.28;;;12.63;88.42
39891;BME280;25564;53.312;9.790;2022-10-17T04:44:20;101172.63;;;12.67;88.63
39891;BME280;25564;53.312;9.790;2022-10-17T04:46:51;101169.06;;;12.68;88.64
39891;BME280;25564;53.312;9.790;2022-10-17T04:49:23;101166.38;;;12.70;88.52
39891;BME280;25564;53.312;9.790;2022-10-17T04:51:54;101157.44;;;12.72;88.57
39891;BME280;25564;53.312;9.790;2022-10-17T04:54:25;101158.19;;;12.81;89.12
39891;BME280;25564;53.312;9.790;2022-10-17T04:56:56;101154.56;;;12.83;88.96
39891;BME280;25564;53.312;9.790;2022-10-17T04:59:28;101158.03;;;12.88;89.24
39891;BME280;25564;53.312;9.790;2022-10-17T05:01:59;101158.00;;;12.90;89.08
39891;BME280;25564;53.312;9.790;2022-10-17T05:04:31;101139.50;;;12.82;89.16
39891;BME280;25564;53.312;9.790;2022-10-17T05:07:02;101156.22;;;12.90;89.19
39891;BME280;25564;53.312;9.790;2022-10-17T05:09:34;101157.22;;;12.85;88.93
39891;BME280;25564;53.312;9.790;2022-10-17T05:12:05;101160.75;;;12.85;88.92
39891;BME280;25564;53.312;9.790;2022-10-17T05:14:40;101157.28;;;12.82;88.99
39891;BME280;25564;53.312;9.790;2022-10-17T05:17:11;101155.63;;;12.74;88.85
39891;BME280;25564;53.312;9.790;2022-10-17T05:19:43;101163.69;;;12.71;88.93
39891;BME280;25564;53.312;9.790;2022-10-17T05:22:14;101160.19;;;12.68;89.06
39891;BME280;25564;53.312;9.790;2022-10-17T05:24:45;101162.91;;;12.65;88.67
39891;BME280;25564;53.312;9.790;2022-10-17T05:27:17;101159.47;;;12.60;88.83
39891;BME280;25564;53.312;9.790;2022-10-17T05:29:48;101163.09;;;12.56;88.82
39891;BME280;25564;53.312;9.790;2022-10-17T05:32:19;101159.56;;;12.54;88.89
39891;BME280;25564;53.312;9.790;2022-10-17T05:34:50;101156.97;;;12.51;88.80
39891;BME280;25564;53.312;9.790;2022-10-17T05:37:22;101136.78;;;12.40;89.05
39891;BME280;25564;53.312;9.790;2022-10-17T05:39:53;101146.44;;;12.46;89.26
39891;BME280;25564;53.312;9.790;2022-10-17T05:42:25;101151.69;;;12.49;89.25
39891;BME280;25564;53.312;9.790;2022-10-17T05:44:56;101156.94;;;12.52;89.30
39891;BME280;25564;53.312;9.790;2022-10-17T05:47:28;101164.91;;;12.54;89.31
39891;BME280;25564;53.312;9.790;2022-10-17T05:50:00;101152.53;;;12.51;89.70
39891;BME280;25564;53.312;9.790;2022-10-17T05:52:31;101158.63;;;12.56;89.88
39891;BME280;25564;53.312;9.790;2022-10-17T05:55:04;101147.13;;;12.56;90.10
39891;BME280;25564;53.312;9.790;2022-10-17T05:57:35;101154.19;;;12.57;89.80
39891;BME280;25564;53.312;9.790;2022-10-17T06:00:07;101151.44;;;12.61;90.29
39891;BME280;25564;53.312;9.790;2022-10-17T06:02:39;101162.84;;;12.68;90.46
39891;BME280;25564;53.312;9.790;2022-10-17T06:05:11;101156.59;;;12.70;90.88
39891;BME280;25564;53.312;9.790;2022-10-17T06:07:42;101135.28;;;12.70;90.38
39891;BME280;25564;53.312;9.790;2022-10-17T06:10:14;101140.50;;;12.76;90.99
39891;BME280;25564;53.312;9.790;2022-10-17T06:12:47;101157.13;;;12.89;91.17
39891;BME280;25564;53.312;9.790;2022-10-17T06:15:18;101164.91;;;13.00;91.40
39891;BME280;25564;53.312;9.790;2022-10-17T06:17:50;101158.50;;;13.08;91.72
39891;BME280;25564;53.312;9.790;2022-10-17T06:20:21;101162.81;;;13.14;91.74
39891;BME280;25564;53.312;9.790;2022-10-17T06:22:52;101171.47;;;13.27;91.86
39891;BME280;25564;53.312;9.790;2022-10-17T06:25:23;101162.44;;;13.34;91.77
39891;BME280;25564;53.312;9.790;2022-10-17T06:27:55;101162.22;;;13.43;91.94
39891;BME280;25564;53.312;9.790;2022-10-17T06:30:26;101154.09;;;13.49;91.73
39891;BME280;25564;53.312;9.790;2022-10-17T06:32:58;101155.63;;;13.59;91.89
39891;BME280;25564;53.312;9.790;2022-10-17T06:35:29;101157.16;;;13.69;91.91
39891;BME280;25564;53.312;9.790;2022-10-17T06:38:00;101142.78;;;13.75;92.12
39891;BME280;25564;53.312;9.790;2022-10-17T06:40:33;101162.88;;;13.91;92.13
39891;BME280;25564;53.312;9.790;2022-10-17T06:43:04;101150.13;;;14.02;92.28
39891;BME280;25564;53.312;9.790;2022-10-17T06:45:38;101152.47;;;14.16;92.16
39891;BME280;25564;53.312;9.790;2022-10-17T06:48:09;101151.22;;;14.29;92.11
39891;BME280;25564;53.312;9.790;2022-10-17T06:50:41;101144.75;;;14.39;92.34
39891;BME280;25564;53.312;9.790;2022-10-17T06:53:12;101151.34;;;14.59;92.41
39891;BME280;25564;53.312;9.790;2022-10-17T06:55:43;101157.22;;;14.71;91.96
39891;BME280;25564;53.312;9.790;2022-10-17T06:58:14;101155.13;;;14.83;92.07
39891;BME280;25564;53.312;9.790;2022-10-17T07:00:46;101147.53;;;15.00;92.33
39891;BME280;25564;53.312;9.790;2022-10-17T07:03:17;101148.88;;;15.15;92.25
39891;BME280;25564;53.312;9.790;2022-10-17T07:05:50;101163.53;;;15.31;91.61
39891;BME280;25564;53.312;9.790;2022-10-17T07:08:22;101154.19;;;15.46;91.90
39891;BME280;25564;53.312;9.790;2022-10-17T07:10:55;101169.84;;;15.59;91.78
39891;BME280;25564;53.312;9.790;2022-10-17T07:13:26;101180.22;;;15.68;91.45
39891;BME280;25564;53.312;9.790;2022-10-17T07:15:58;101183.63;;;15.74;91.32
39891;BME280;25564;53.312;9.790;2022-10-17T07:18:31;101185.97;;;15.84;90.98
39891;BME280;25564;53.312;9.790;2022-10-17T07:21:03;101187.47;;;15.93;90.72
39891;BME280;25564;53.312;9.790;2022-10-17T07:23:35;101188.25;;;15.96;90.36
39891;BME280;25564;53.312;9.790;2022-10-17T07:26:11;101177.41;;;16.01;90.23
39891;BME280;25564;53.312;9.790;2022-10-17T07:28:44;101189.56;;;16.11;90.11
39891;BME280;25564;53.312;9.790;2022-10-17T07:31:17;101198.94;;;16.24;90.34
39891;BME280;25564;53.312;9.790;2022-10-17T07:33:49;101201.16;;;16.38;90.18
39891;BME280;25564;53.312;9.790;2022-10-17T07:36:21;101198.06;;;16.50;89.79
39891;BME280;25564;53.312;9.790;2022-10-17T07:38:52;101190.47;;;16.63;89.46
39891;BME280;25564;53.312;9.790;2022-10-17T07:41:24;101192.00;;;16.70;89.16
39891;BME280;25564;53.312;9.790;2022-10-17T07:43:55;101188.41;;;16.71;89.01
39891;BME280;25564;53.312;9.790;2022-10-17T07:46:26;101202.91;;;16.90;88.91
39891;BME280;25564;53.312;9.790;2022-10-17T07:48:57;101197.66;;;17.12;88.95
39891;BME280;25564;53.312;9.790;2022-10-17T07:51:29;101197.53;;;17.39;88.60
39891;BME280;25564;53.312;9.790;2022-10-17T07:54:00;101201.97;;;17.63;88.24
39891;BME280;25564;53.312;9.790;2022-10-17T07:56:31;101211.19;;;17.79;87.17
39891;BME280;25564;53.312;9.790;2022-10-17T07:59:03;101197.38;;;17.88;87.60
39891;BME280;25564;53.312;9.790;2022-10-17T08:01:39;101197.13;;;17.94;87.07
39891;BME280;25564;53.312;9.790;2022-10-17T08:04:10;101199.44;;;18.04;86.92
39891;BME280;25564;53.312;9.790;2022-10-17T08:06:42;101197.06;;;18.18;86.39
39891;BME280;25564;53.312;9.790;2022-10-17T08:09:14;101196.50;;;18.32;86.50
39891;BME280;25564;53.312;9.790;2022-10-17T08:11:46;101194.13;;;18.46;86.29
39891;BME280;25564;53.312;9.790;2022-10-17T08:14:17;101195.31;;;18.60;85.48
39891;BME280;25564;53.312;9.790;2022-10-17T08:16:48;101190.34;;;18.72;85.50
39891;BME280;25564;53.312;9.790;2022-10-17T08:19:19;101194.41;;;18.80;85.33
39891;BME280;25564;53.312;9.790;2022-10-17T08:21:51;101174.78;;;18.78;84.50
39891;BME280;25564;53.312;9.790;2022-10-17T08:24:24;101176.94;;;18.90;84.14
39891;BME280;25564;53.312;9.790;2022-10-17T08:26:55;101192.50;;;19.03;84.53
39891;BME280;25564;53.312;9.790;2022-10-17T08:29:28;101194.66;;;19.15;84.51
39891;BME280;25564;53.312;9.790;2022-10-17T08:31:59;101185.94;;;19.28;83.49
39891;BME280;25564;53.312;9.790;2022-10-17T08:34:33;101185.16;;;19.45;83.20
39891;BME280;25564;53.312;9.790;2022-10-17T08:37:04;101186.09;;;19.65;83.40
39891;BME280;25564;53.312;9.790;2022-10-17T08:39:36;101179.72;;;19.84;83.07
39891;BME280;25564;53.312;9.790;2022-10-17T08:47:42;101184.34;;;20.36;81.28
39891;BME280;25564;53.312;9.790;2022-10-17T08:50:41;101188.34;;;20.46;81.29
39891;BME280;25564;53.312;9.790;2022-10-17T08:53:32;101191.44;;;20.55;80.85
39891;BME280;25564;53.312;9.790;2022-10-17T08:56:15;101195.50;;;20.64;80.82
39891;BME280;25564;53.312;9.790;2022-10-17T08:58:54;101206.44;;;20.78;80.72
39891;BME280;25564;53.312;9.790;2022-10-17T09:01:47;101194.25;;;20.87;79.54
39891;BME280;25564;53.312;9.790;2022-10-17T09:04:36;101190.03;;;20.99;79.78
39891;BME280;25564;53.312;9.790;2022-10-17T09:07:21;101190.19;;;21.13;79.54
39891;BME280;25564;53.312;9.790;2022-10-17T09:10:11;101187.03;;;21.22;79.17
39891;BME280;25564;53.312;9.790;2022-10-17T09:13:21;101178.25;;;21.34;78.40
39891;BME280;25564;53.312;9.790;2022-10-17T09:18:59;101182.13;;;21.62;77.44
39891;BME280;25564;53.312;9.790;2022-10-17T09:21:57;101185.75;;;21.92;77.38
39891;BME280;25564;53.312;9.790;2022-10-17T09:30:46;101195.88;;;22.36;75.08
39891;BME280;25564;53.312;9.790;2022-10-17T09:33:25;101196.28;;;22.44;75.84
39891;BME280;25564;53.312;9.790;2022-10-17T09:36:32;101199.59;;;22.49;75.49
39891;BME280;25564;53.312;9.790;2022-10-17T09:39:10;101187.81;;;22.50;75.37
39891;BME280;25564;53.312;9.790;2022-10-17T09:41:47;101192.22;;;22.67;74.93
39891;BME280;25564;53.312;9.790;2022-10-17T09:44:34;101200.41;;;22.81;74.81
39891;BME280;25564;53.312;9.790;2022-10-17T09:47:19;101201.16;;;22.97;74.30
39891;BME280;25564;53.312;9.790;2022-10-17T09:49:52;101195.09;;;23.08;74.00
39891;BME280;25564;53.312;9.790;2022-10-17T09:52:28;101196.84;;;23.09;73.48
39891;BME280;25564;53.312;9.790;2022-10-17T09:55:10;101204.75;;;23.12;73.35
39891;BME280;25564;53.312;9.790;2022-10-17T09:57:57;101207.19;;;23.16;72.39
39891;BME280;25564;53.312;9.790;2022-10-17T10:00:31;101210.09;;;23.13;72.77
39891;BME280;25564;53.312;9.790;2022-10-17T10:03:22;101211.94;;;23.13;72.03
39891;BME280;25564;53.312;9.790;2022-10-17T10:06:10;101212.59;;;23.16;72.61
39891;BME280;25564;53.312;9.790;2022-10-17T10:08:51;101210.28;;;23.25;72.24
39891;BME280;25564;53.312;9.790;2022-10-17T10:11:25;101209.03;;;23.30;72.45
39891;BME280;25564;53.312;9.790;2022-10-17T10:14:29;101210.97;;;23.42;71.63
39891;BME280;25564;53.312;9.790;2022-10-17T10:17:05;101210.22;;;23.55;71.98
39891;BME280;25564;53.312;9.790;2022-10-17T10:19:54;101201.50;;;23.64;71.35
39891;BME280;25564;53.312;9.790;2022-10-17T10:22:26;101219.59;;;23.77;71.11
39891;BME280;25564;53.312;9.790;2022-10-17T10:25:10;101231.25;;;23.92;70.36
39891;BME280;25564;53.312;9.790;2022-10-17T10:27:45;101224.00;;;23.93;70.30
39891;BME280;25564;53.312;9.790;2022-10-17T10:30:28;101226.59;;;23.94;69.78
39891;BME280;25564;53.312;9.790;2022-10-17T10:33:03;101235.41;;;23.98;70.21
39891;BME280;25564;53.312;9.790;2022-10-17T10:35:35;101225.53;;;23.97;69.90
39891;BME280;25564;53.312;9.790;2022-10-17T10:38:15;101217.69;;;23.92;69.83
39891;BME280;25564;53.312;9.790;2022-10-17T10:40:50;101219.00;;;23.87;69.67
39891;BME280;25564;53.312;9.790;2022-10-17T10:43:30;101209.81;;;23.75;68.90
39891;BME280;25564;53.312;9.790;2022-10-17T10:46:21;101215.44;;;23.72;69.21
39891;BME280;25564;53.312;9.790;2022-10-17T10:49:00;101217.47;;;23.68;69.18
39891;BME280;25564;53.312;9.790;2022-10-17T10:51:37;101226.88;;;23.63;69.12
39891;BME280;25564;53.312;9.790;2022-10-17T10:54:23;101227.06;;;23.60;69.57
39891;BME280;25564;53.312;9.790;2022-10-17T10:56:59;101226.38;;;23.56;69.56
39891;BME280;25564;53.312;9.790;2022-10-17T10:59:39;101219.59;;;23.49;69.31
39891;BME280;25564;53.312;9.790;2022-10-17T11:02:40;101226.66;;;23.52;69.40
39891;BME280;25564;53.312;9.790;2022-10-17T11:05:42;101218.22;;;23.42;69.71
39891;BME280;25564;53.312;9.790;2022-10-17T11:08:39;101239.41;;;23.49;69.25
39891;BME280;25564;53.312;9.790;2022-10-17T11:16:39;101243.50;;;23.85;69.96
39891;BME280;25564;53.312;9.790;2022-10-17T11:19:30;101242.88;;;23.94;69.04
39891;BME280;25564;53.312;9.790;2022-10-17T11:22:14;101242.78;;;23.96;68.75
39891;BME280;25564;53.312;9.790;2022-10-17T11:24:55;101246.56;;;23.93;68.65
39891;BME280;25564;53.312;9.790;2022-10-17T11:27:30;101245.03;;;23.89;69.20
39891;BME280;25564;53.312;9.790;2022-10-17T11:30:02;101247.94;;;23.86;69.02
39891;BME280;25564;53.312;9.790;2022-10-17T11:32:38;101239.44;;;23.78;68.74
39891;BME280;25564;53.312;9.790;2022-10-17T11:35:23;101244.38;;;23.86;69.03
39891;BME280;25564;53.312;9.790;2022-10-17T11:40:38;101240.03;;;23.83;69.08
39891;BME280;25564;53.312;9.790;2022-10-17T11:43:16;101231.13;;;23.81;68.68
39891;BME280;25564;53.312;9.790;2022-10-17T11:46:23;101243.91;;;23.79;68.50
39891;BME280;25564;53.312;9.790;2022-10-17T11:49:00;101254.56;;;23.68;69.22
39891;BME280;25564;53.312;9.790;2022-10-17T11:51:44;101257.56;;;23.63;69.24
39891;BME280;25564;53.312;9.790;2022-10-17T11:54:43;101256.28;;;23.55;69.47
39891;BME280;25564;53.312;9.790;2022-10-17T12:02:52;101261.66;;;23.40;69.59
39891;BME280;25564;53.312;9.790;2022-10-17T12:05:34;101262.81;;;23.36;69.65
39891;BME280;25564;53.312;9.790;2022-10-17T12:11:10;101260.88;;;23.24;69.31
39891;BME280;25564;53.312;9.790;2022-10-17T12:13:50;101279.38;;;23.32;69.69
39891;BME280;25564;53.312;9.790;2022-10-17T12:21:53;101266.84;;;23.15;69.21
39891;BME280;25564;53.312;9.790;2022-10-17T12:24:52;101271.38;;;23.00;69.79
39891;BME280;25564;53.312;9.790;2022-10-17T12:27:43;101267.47;;;22.90;70.35
39891;BME280;25564;53.312;9.790;2022-10-17T12:30:21;101268.16;;;22.79;70.52
39891;BME280;25564;53.312;9.790;2022-10-17T12:35:38;101277.81;;;22.68;70.54
39891;BME280;25564;53.312;9.790;2022-10-17T12:38:23;101282.72;;;22.61;70.76
39891;BME280;25564;53.312;9.790;2022-10-17T12:40:56;101296.78;;;22.52;70.89
39891;BME280;25564;53.312;9.790;2022-10-17T12:46:00;101303.25;;;22.34;71.22
39891;BME280;25564;53.312;9.790;2022-10-17T12:51:19;101307.97;;;22.14;71.05
39891;BME280;25564;53.312;9.790;2022-10-17T12:54:11;101316.09;;;21.97;71.25
39891;BME280;25564;53.312;9.790;2022-10-17T12:56:46;101302.69;;;21.80;71.44
39891;BME280;25564;53.312;9.790;2022-10-17T12:59:21;101347.81;;;21.78;71.66
39891;BME280;25564;53.312;9.790;2022-10-17T13:01:57;101379.16;;;21.65;71.52
39891;BME280;25564;53.312;9.790;2022-10-17T13:04:29;101354.78;;;21.32;71.67
39891;BME280;25564;53.312;9.790;2022-10-17T13:07:01;101295.13;;;20.84;72.37
39891;BME280;25564;53.312;9.790;2022-10-17T13:09:41;101294.53;;;20.43;74.73
39891;BME280;25564;53.312;9.790;2022-10-17T13:12:19;101301.50;;;20.10;76.53
39891;BME280;25564;53.312;9.790;2022-10-17T13:14:53;101304.41;;;19.86;78.22
39891;BME280;25564;53.312;9.790;2022-10-17T13:17:28;101323.78;;;19.76;80.27
39891;BME280;25564;53.312;9.790;2022-10-17T13:20:01;101319.84;;;19.64;81.41
39891;BME280;25564;53.312;9.790;2022-10-17T13:22:33;101316.00;;;19.49;82.43
39891;BME280;25564;53.312;9.790;2022-10-17T13:25:24;101323.75;;;19.57;83.20
39891;BME280;25564;53.312;9.790;2022-10-17T13:28:05;101326.59;;;19.54;83.73
39891;BME280;25564;53.312;9.790;2022-10-17T13:30:37;101353.50;;;19.54;84.17
39891;BME280;25564;53.312;9.790;2022-10-17T13:33:28;101374.81;;;19.38;84.83
39891;BME280;25564;53.312;9.790;2022-10-17T13:36:02;101392.78;;;19.38;85.36
39891;BME280;25564;53.312;9.790;2022-10-17T13:38:36;101369.75;;;19.31;85.58
39891;BME280;25564;53.312;9.790;2022-10-17T13:41:13;101351.13;;;19.26;86.35
39891;BME280;25564;53.312;9.790;2022-10-17T13:44:17;101339.69;;;19.21;87.12
39891;BME280;25564;53.312;9.790;2022-10-17T13:46:50;101328.38;;;19.13;86.91
39891;BME280;25564;53.312;9.790;2022-10-17T13:49:31;101346.53;;;19.08;87.83
39891;BME280;25564;53.312;9.790;2022-10-17T13:52:05;101350.41;;;19.01;88.83
39891;BME280;25564;53.312;9.790;2022-10-17T13:54:39;101340.59;;;19.00;89.39
39891;BME280;25564;53.312;9.790;2022-10-17T13:57:22;101330.03;;;18.95;90.53
39891;BME280;25564;53.312;9.790;2022-10-17T13:59:57;101318.41;;;18.94;91.51
39891;BME280;25564;53.312;9.790;2022-10-17T14:02:30;101312.16;;;18.94;92.54
39891;BME280;25564;53.312;9.790;2022-10-17T14:05:15;101316.53;;;18.97;93.08
39891;BME280;25564;53.312;9.790;2022-10-17T14:07:54;101313.69;;;19.00;93.57
39891;BME280;25564;53.312;9.790;2022-10-17T14:10:46;101324.41;;;19.01;94.07
39891;BME280;25564;53.312;9.790;2022-10-17T14:13:26;101318.28;;;18.98;94.08
39891;BME280;25564;53.312;9.790;2022-10-17T14:15:59;101322.50;;;19.03;94.08
39891;BME280;25564;53.312;9.790;2022-10-17T14:18:33;101333.28;;;19.03;94.06
39891;BME280;25564;53.312;9.790;2022-10-17T14:21:07;101335.22;;;19.00;94.21
39891;BME280;25564;53.312;9.790;2022-10-17T14:24:24;101327.28;;;18.97;94.72
39891;BME280;25564;53.312;9.790;2022-10-17T14:26:58;101330.16;;;18.92;94.57
39891;BME280;25564;53.312;9.790;2022-10-17T14:29:31;101359.69;;;18.93;95.25
39891;BME280;25564;53.312;9.790;2022-10-17T14:32:20;101362.88;;;18.81;94.63
39891;BME280;25564;53.312;9.790;2022-10-17T14:34:54;101360.44;;;18.75;94.89
39891;BME280;25564;53.312;9.790;2022-10-17T14:37:47;101377.53;;;18.74;95.42